Time;durP1;ratioP1;P1;durP2;ratioP2;P2;SDS_P1;SDS_P2;PMS_P1;PMS_P2;Temp;Humidity;BMP_temperature;BMP_pressure;BME280_temperature;BME280_humidity;BME280_pressure;Samples;Min_cycle;Max_cycle;Signal;HPM_P1;HPM_P2
2023/02/23 00:01:24;;;;;;;29.00;15.07;;;5.20;1.00;;;;;;6162290;23;20219;-81
2023/02/23 00:03:53;;;;;;;28.88;14.05;;;5.20;1.00;;;;;;6159150;23;20226;-80
2023/02/23 00:06:21;;;;;;;21.10;13.43;;;5.30;1.00;;;;;;6160020;23;20215;-81
2023/02/23 00:08:48;;;;;;;25.83;15.18;;;5.30;1.00;;;;;;6160181;23;20268;-79
2023/02/23 00:11:16;;;;;;;22.08;15.27;;;5.30;1.00;;;;;;6161854;23;20219;-78
2023/02/23 00:13:45;;;;;;;24.38;15.02;;;5.20;1.00;;;;;;6161815;23;20223;-79
2023/02/23 00:16:16;;;;;;;24.48;16.65;;;5.20;1.00;;;;;;6160895;23;20218;-79
2023/02/23 00:18:49;;;;;;;22.70;15.50;;;5.20;1.00;;;;;;6160310;23;20949;-82
2023/02/23 00:21:18;;;;;;;22.08;15.00;;;5.20;1.00;;;;;;6135461;23;20219;-79
2023/02/23 00:23:49;;;;;;;26.17;14.70;;;5.20;1.00;;;;;;6162156;23;20255;-79
2023/02/23 00:26:19;;;;;;;27.73;15.75;;;5.20;1.00;;;;;;6161324;23;20250;-80
2023/02/23 00:28:47;;;;;;;21.80;15.07;;;5.20;1.00;;;;;;6163274;23;20269;-79
2023/02/23 00:31:16;;;;;;;27.20;16.05;;;5.10;1.00;;;;;;6162768;23;20266;-79
2023/02/23 00:33:43;;;;;;;22.23;16.00;;;5.10;1.00;;;;;;6165157;23;20226;-80
2023/02/23 00:36:12;;;;;;;27.45;16.77;;;5.10;1.00;;;;;;6158046;23;20211;-81
2023/02/23 00:38:40;;;;;;;31.30;17.02;;;5.00;1.00;;;;;;6164522;23;20214;-81
2023/02/23 00:41:09;;;;;;;25.80;15.75;;;5.00;1.00;;;;;;6163096;23;20223;-79
2023/02/23 00:43:37;;;;;;;23.80;15.55;;;5.00;1.00;;;;;;6163046;23;20223;-81
2023/02/23 00:46:06;;;;;;;26.40;16.42;;;5.10;1.00;;;;;;6160955;23;20215;-80
2023/02/23 00:48:35;;;;;;;29.60;16.42;;;5.00;1.00;;;;;;6164321;23;20214;-80
2023/02/23 00:51:05;;;;;;;27.65;16.98;;;5.00;1.00;;;;;;6162649;23;20207;-79
2023/02/23 00:53:32;;;;;;;29.98;17.65;;;5.00;1.00;;;;;;6165059;23;20833;-79
2023/02/23 00:56:00;;;;;;;33.75;16.88;;;5.00;1.00;;;;;;6137905;23;20238;-79
2023/02/23 00:58:27;;;;;;;25.05;15.13;;;4.90;1.00;;;;;;6162801;23;20306;-79
2023/02/23 01:00:54;;;;;;;33.17;16.33;;;5.00;1.00;;;;;;6163689;23;20216;-79
2023/02/23 01:03:21;;;;;;;26.17;14.95;;;5.00;1.00;;;;;;6163199;23;20676;-80
2023/02/23 01:05:49;;;;;;;27.05;16.15;;;5.00;1.00;;;;;;6162875;23;20286;-81
2023/02/23 01:08:17;;;;;;;23.13;15.95;;;5.00;1.00;;;;;;6165209;23;20214;-82
2023/02/23 01:10:51;;;;;;;24.55;16.83;;;5.00;1.00;;;;;;6160789;23;20293;-81
2023/02/23 01:13:19;;;;;;;21.33;16.50;;;5.00;1.00;;;;;;6162353;23;20294;-80
2023/02/23 01:15:48;;;;;;;26.70;16.42;;;5.00;1.00;;;;;;6161747;23;20234;-78
2023/02/23 01:18:18;;;;;;;23.38;16.65;;;5.10;1.00;;;;;;6162278;23;20215;-80
2023/02/23 01:20:46;;;;;;;24.65;16.25;;;5.10;1.00;;;;;;6160548;23;20219;-81
2023/02/23 01:23:15;;;;;;;27.23;17.27;;;5.10;1.00;;;;;;6162687;23;20218;-78
2023/02/23 01:25:44;;;;;;;26.95;17.35;;;5.20;1.00;;;;;;6163469;23;20219;-80
2023/02/23 01:28:12;;;;;;;23.00;15.88;;;5.20;1.00;;;;;;6162023;23;20214;-80
2023/02/23 01:30:40;;;;;;;29.98;16.00;;;5.10;1.00;;;;;;6156473;23;20241;-81
2023/02/23 01:33:08;;;;;;;21.70;16.05;;;5.10;1.00;;;;;;6160104;23;20225;-80
2023/02/23 01:35:36;;;;;;;28.42;18.10;;;5.10;1.00;;;;;;6156864;23;20246;-80
2023/02/23 01:38:03;;;;;;;28.45;16.50;;;5.00;1.00;;;;;;6163245;23;20250;-81
2023/02/23 01:40:35;;;;;;;25.75;16.45;;;5.00;1.00;;;;;;6163078;23;21082;-81
2023/02/23 01:43:13;;;;;;;28.30;16.88;;;5.00;1.00;;;;;;6162349;23;20306;-79
2023/02/23 01:45:41;;;;;;;26.83;16.85;;;5.10;1.00;;;;;;6161297;23;20214;-80
2023/02/23 01:48:12;;;;;;;28.20;16.27;;;5.00;1.00;;;;;;6162337;23;20234;-80
2023/02/23 01:50:45;;;;;;;31.48;17.20;;;5.00;1.00;;;;;;6160800;23;20211;-79
2023/02/23 01:53:12;;;;;;;24.85;15.40;;;5.00;1.00;;;;;;6163469;23;20226;-79
2023/02/23 01:55:41;;;;;;;30.90;16.27;;;5.00;1.00;;;;;;6147454;23;20214;-79
2023/02/23 01:58:14;;;;;;;25.02;15.45;;;4.90;1.00;;;;;;6158942;23;20239;-79
2023/02/23 02:03:24;;;;;;;26.33;16.38;;;5.00;1.00;;;;;;6081940;23;20215;-76
2023/02/23 02:05:51;;;;;;;26.58;16.30;;;4.90;1.00;;;;;;6129560;23;20244;-78
2023/02/23 02:08:22;;;;;;;26.00;16.95;;;4.90;1.00;;;;;;6129419;23;20285;-77
2023/02/23 02:10:54;;;;;;;30.90;16.27;;;4.80;1.00;;;;;;6101733;23;20602;-80
2023/02/23 02:13:26;;;;;;;27.75;16.20;;;4.90;1.00;;;;;;6128017;23;20259;-78
2023/02/23 02:16:27;;;;;;;29.45;17.85;;;4.90;1.00;;;;;;6129757;23;20281;-77
2023/02/23 02:19:17;;;;;;;28.40;15.68;;;4.80;1.00;;;;;;6129488;23;20278;-78
2023/02/23 02:22:20;;;;;;;24.80;16.27;;;4.90;1.00;;;;;;6131050;23;20271;-78
2023/02/23 02:25:37;;;;;;;27.92;15.63;;;4.90;1.00;;;;;;6105480;23;20707;-78
2023/02/23 02:28:30;;;;;;;32.60;17.13;;;4.90;1.00;;;;;;6105877;23;20211;-77
2023/02/23 02:31:21;;;;;;;25.40;15.77;;;4.80;1.00;;;;;;6133906;23;20230;-79
2023/02/23 02:34:22;;;;;;;25.25;16.65;;;4.80;1.00;;;;;;6131117;23;20254;-78
2023/02/23 02:37:15;;;;;;;23.75;16.13;;;4.70;1.00;;;;;;6123616;23;20219;-77
2023/02/23 02:39:50;;;;;;;30.63;17.63;;;4.70;1.00;;;;;;6106529;23;20246;-76
2023/02/23 02:42:32;;;;;;;26.85;17.67;;;4.70;1.00;;;;;;6105411;23;20719;-78
2023/02/23 02:45:06;;;;;;;31.75;17.70;;;4.70;1.00;;;;;;6128846;23;20616;-78
2023/02/23 02:47:39;;;;;;;30.92;18.17;;;4.60;1.00;;;;;;6129667;23;20739;-77
2023/02/23 02:50:11;;;;;;;28.90;16.95;;;4.60;1.00;;;;;;6130450;23;20295;-78
2023/02/23 02:52:43;;;;;;;28.85;17.92;;;4.60;1.00;;;;;;6128307;23;20827;-76
2023/02/23 02:55:18;;;;;;;28.30;17.15;;;4.60;1.00;;;;;;6128150;23;20220;-77
2023/02/23 02:57:46;;;;;;;26.10;18.48;;;4.60;1.00;;;;;;6128266;23;20600;-78
2023/02/23 04:19:01;;;;;;;30.50;19.33;;;4.00;1.00;;;;;;6129769;23;20627;-78
2023/02/23 04:21:28;;;;;;;29.17;17.63;;;4.00;1.00;;;;;;6127870;23;20223;-78
2023/02/23 04:23:55;;;;;;;32.88;19.23;;;4.00;1.00;;;;;;6130381;23;20275;-77
2023/02/23 04:26:23;;;;;;;29.88;18.15;;;4.00;1.00;;;;;;6131506;23;20223;-77
2023/02/23 04:28:50;;;;;;;29.42;18.55;;;4.00;1.00;;;;;;6129879;23;20211;-77
2023/02/23 04:31:17;;;;;;;29.17;17.55;;;4.00;1.00;;;;;;6130177;23;20216;-77
2023/02/23 04:33:47;;;;;;;26.48;17.35;;;4.00;1.00;;;;;;6126013;23;20215;-76
2023/02/23 04:36:14;;;;;;;33.30;21.20;;;3.90;1.00;;;;;;6125035;23;20243;-77
2023/02/23 04:38:42;;;;;;;24.27;17.42;;;3.90;1.00;;;;;;6126840;23;20319;-78
2023/02/23 04:41:09;;;;;;;27.48;16.98;;;3.90;1.00;;;;;;6128224;23;20274;-78
2023/02/23 04:43:37;;;;;;;29.70;19.17;;;3.90;1.00;;;;;;6128037;23;20227;-78
2023/02/23 04:46:05;;;;;;;26.40;17.58;;;3.80;1.00;;;;;;6128331;23;20219;-76
2023/02/23 04:48:32;;;;;;;29.65;19.35;;;3.90;1.00;;;;;;6129024;23;20278;-78
2023/02/23 04:51:00;;;;;;;28.95;18.83;;;3.90;1.00;;;;;;6130680;23;20223;-77
2023/02/23 04:53:29;;;;;;;30.45;20.48;;;3.90;1.00;;;;;;6132312;23;20207;-77
2023/02/23 04:55:56;;;;;;;30.30;18.67;;;3.90;1.00;;;;;;6126047;23;20222;-77
2023/02/23 04:58:24;;;;;;;31.20;19.33;;;3.90;1.00;;;;;;6127672;23;20219;-78
2023/02/23 05:00:52;;;;;;;30.40;16.80;;;3.90;1.00;;;;;;6126401;23;20226;-79
2023/02/23 05:03:22;;;;;;;32.95;19.98;;;3.80;1.00;;;;;;6128411;23;20682;-77
2023/02/23 05:05:49;;;;;;;26.73;18.25;;;3.70;1.00;;;;;;6126839;23;20219;-76
2023/02/23 05:08:17;;;;;;;27.27;18.13;;;3.70;1.00;;;;;;6127505;23;20941;-78
2023/02/23 05:10:46;;;;;;;33.80;17.55;;;3.70;1.00;;;;;;6127191;23;20591;-78
2023/02/23 05:13:13;;;;;;;31.83;18.35;;;3.70;1.00;;;;;;6131345;23;20231;-76
2023/02/23 05:15:40;;;;;;;26.33;18.60;;;3.70;1.00;;;;;;6126193;23;20278;-77
2023/02/23 05:18:07;;;;;;;29.45;18.45;;;3.70;1.00;;;;;;6130172;23;20212;-77
2023/02/23 05:20:37;;;;;;;25.77;17.33;;;3.70;1.00;;;;;;6131416;23;20223;-77
2023/02/23 05:23:04;;;;;;;28.65;18.08;;;3.70;1.00;;;;;;6130494;23;20294;-76
2023/02/23 05:25:32;;;;;;;26.05;18.52;;;3.70;1.00;;;;;;6128852;23;20649;-79
2023/02/23 05:27:59;;;;;;;28.77;19.27;;;3.70;1.00;;;;;;6126823;23;20920;-77
2023/02/23 05:30:28;;;;;;;26.48;17.90;;;3.70;1.00;;;;;;6128539;23;20224;-77
2023/02/23 05:32:55;;;;;;;33.97;18.63;;;3.70;1.00;;;;;;6090249;23;20626;-77
2023/02/23 05:35:23;;;;;;;25.13;17.45;;;3.70;1.00;;;;;;6106023;23;20224;-75
2023/02/23 05:37:51;;;;;;;31.23;17.95;;;3.60;1.00;;;;;;6116082;23;20286;-78
2023/02/23 05:40:18;;;;;;;31.90;20.92;;;3.60;1.00;;;;;;6129190;23;20226;-77
2023/02/23 05:42:47;;;;;;;27.27;18.95;;;3.50;1.00;;;;;;6129733;23;20615;-78
2023/02/23 05:45:16;;;;;;;25.27;17.38;;;3.50;1.00;;;;;;6131980;23;20223;-76
2023/02/23 05:47:43;;;;;;;27.98;18.73;;;3.40;1.00;;;;;;6133601;23;20215;-79
2023/02/23 05:50:11;;;;;;;35.13;22.40;;;3.50;1.00;;;;;;6132675;23;20272;-76
2023/02/23 05:52:40;;;;;;;26.77;17.08;;;3.50;1.00;;;;;;6107113;23;20843;-76
2023/02/23 05:55:10;;;;;;;29.08;17.90;;;3.50;1.00;;;;;;6133151;23;20225;-78
2023/02/23 05:57:39;;;;;;;26.83;16.73;;;3.50;1.00;;;;;;6131746;23;20235;-76
2023/02/23 06:00:14;;;;;;;28.60;16.77;;;3.50;1.00;;;;;;6133366;23;21074;-78
2023/02/23 06:02:42;;;;;;;28.20;16.50;;;3.50;1.00;;;;;;6130779;23;20557;-77
2023/02/23 06:05:09;;;;;;;30.65;17.38;;;3.60;1.00;;;;;;6129758;23;20208;-76
2023/02/23 06:07:36;;;;;;;23.13;15.25;;;3.60;1.00;;;;;;6128551;23;20215;-76
2023/02/23 06:10:06;;;;;;;25.35;16.45;;;3.60;1.00;;;;;;6130412;23;20642;-77
2023/02/23 06:12:33;;;;;;;30.33;18.63;;;3.60;1.00;;;;;;6131319;23;20961;-77
2023/02/23 06:15:02;;;;;;;24.67;17.90;;;3.60;1.00;;;;;;6132667;23;20207;-77
2023/02/23 06:17:32;;;;;;;26.38;17.10;;;3.50;1.00;;;;;;6130455;23;20219;-76
2023/02/23 06:20:02;;;;;;;31.88;20.10;;;3.60;1.00;;;;;;6132595;23;20301;-77
2023/02/23 06:22:31;;;;;;;27.15;17.75;;;3.60;1.00;;;;;;6133331;23;20631;-77
2023/02/23 06:24:58;;;;;;;32.80;17.90;;;3.60;1.00;;;;;;6129162;23;20219;-76
2023/02/23 06:27:25;;;;;;;35.20;17.35;;;3.60;1.00;;;;;;6104081;23;20243;-76
2023/02/23 06:29:52;;;;;;;29.95;16.25;;;3.50;1.00;;;;;;6117459;23;20246;-77
2023/02/23 06:32:20;;;;;;;33.55;17.58;;;3.50;1.00;;;;;;6134888;23;20955;-76
2023/02/23 06:34:48;;;;;;;31.10;16.77;;;3.50;1.00;;;;;;6135008;23;20944;-78
2023/02/23 06:37:15;;;;;;;28.17;16.73;;;3.60;1.00;;;;;;6134101;23;20250;-78
2023/02/23 06:39:44;;;;;;;29.67;17.65;;;3.60;1.00;;;;;;6138682;23;20215;-78
2023/02/23 06:42:14;;;;;;;25.13;17.50;;;3.60;1.00;;;;;;6141340;23;20282;-79
2023/02/23 06:44:41;;;;;;;28.25;17.33;;;3.70;1.00;;;;;;6135974;23;20275;-77
2023/02/23 06:47:09;;;;;;;28.00;17.58;;;3.70;1.00;;;;;;6128997;23;20941;-78
2023/02/23 06:49:43;;;;;;;33.90;19.60;;;3.80;1.00;;;;;;6129575;23;20218;-79
2023/02/23 06:52:13;;;;;;;25.17;16.05;;;3.80;1.00;;;;;;6155552;23;20226;-78
2023/02/23 06:54:42;;;;;;;32.03;17.95;;;3.90;1.00;;;;;;6126687;23;20256;-79
2023/02/23 06:57:11;;;;;;;31.63;19.25;;;4.00;1.00;;;;;;6123141;23;20253;-77
2023/02/23 06:59:38;;;;;;;33.60;18.38;;;4.10;1.00;;;;;;6122363;23;20274;-78
2023/02/23 07:02:06;;;;;;;27.85;19.08;;;4.10;1.00;;;;;;6148438;23;20294;-77
2023/02/23 07:04:33;;;;;;;40.55;19.63;;;4.20;1.00;;;;;;6142849;23;20290;-77
2023/02/23 07:07:00;;;;;;;32.90;18.67;;;4.20;1.00;;;;;;6142226;23;20256;-79
2023/02/23 07:09:29;;;;;;;27.50;18.73;;;4.20;1.00;;;;;;6133736;23;20231;-79
2023/02/23 07:11:56;;;;;;;32.78;18.98;;;4.30;1.00;;;;;;6136589;23;20215;-80
2023/02/23 07:14:23;;;;;;;29.00;18.90;;;4.30;1.00;;;;;;6138576;23;20219;-79
2023/02/23 07:16:50;;;;;;;28.27;17.13;;;4.40;1.00;;;;;;6110167;23;20693;-78
2023/02/23 07:19:19;;;;;;;27.95;19.00;;;4.40;1.00;;;;;;6139235;23;20241;-79
2023/02/23 07:21:49;;;;;;;30.48;19.00;;;4.50;1.00;;;;;;6136108;23;20215;-78
2023/02/23 07:24:16;;;;;;;30.25;18.60;;;4.60;1.00;;;;;;6138863;23;20709;-77
2023/02/23 07:26:45;;;;;;;32.05;18.00;;;4.60;1.00;;;;;;6139918;23;20216;-79
2023/02/23 07:29:13;;;;;;;31.58;18.20;;;4.70;1.00;;;;;;6144163;23;20227;-79
2023/02/23 07:31:41;;;;;;;30.52;18.10;;;4.70;1.00;;;;;;6144000;23;20660;-80
2023/02/23 07:34:11;;;;;;;29.58;19.40;;;4.80;1.00;;;;;;6141537;23;20772;-78
2023/02/23 07:36:39;;;;;;;28.50;17.05;;;4.80;1.00;;;;;;6139954;23;20924;-80
2023/02/23 07:39:08;;;;;;;25.52;18.02;;;4.80;1.00;;;;;;6141429;23;20221;-78
2023/02/23 07:41:35;;;;;;;31.73;19.27;;;4.80;1.00;;;;;;6140036;23;20220;-78
2023/02/23 07:44:05;;;;;;;25.95;18.73;;;4.90;1.00;;;;;;6136358;23;20275;-80
2023/02/23 07:46:32;;;;;;;27.38;20.55;;;4.80;1.00;;;;;;6127559;23;20211;-77
2023/02/23 07:48:59;;;;;;;31.92;18.35;;;4.70;1.00;;;;;;6129680;23;20211;-77
2023/02/23 07:51:26;;;;;;;26.73;17.98;;;4.70;1.00;;;;;;6133762;23;20979;-77
2023/02/23 07:53:55;;;;;;;29.40;18.45;;;4.70;1.00;;;;;;6130772;23;20678;-78
2023/02/23 07:56:26;;;;;;;28.75;18.17;;;4.90;1.00;;;;;;6131154;23;20986;-78
2023/02/23 07:58:54;;;;;;;30.02;20.70;;;4.90;1.00;;;;;;6101427;23;20811;-79
2023/02/23 08:01:23;;;;;;;38.70;22.75;;;5.00;1.00;;;;;;6104732;23;20215;-78
2023/02/23 08:03:52;;;;;;;35.42;21.42;;;5.20;1.00;;;;;;6129966;23;20242;-78
2023/02/23 08:06:20;;;;;;;27.00;19.75;;;5.30;1.00;;;;;;6129492;23;20219;-77
2023/02/23 08:08:47;;;;;;;28.58;18.65;;;5.30;1.00;;;;;;6130812;23;20222;-77
2023/02/23 08:11:14;;;;;;;28.52;17.90;;;5.30;1.00;;;;;;6131454;23;20220;-76
2023/02/23 08:13:41;;;;;;;24.83;18.35;;;5.40;1.00;;;;;;6130426;23;20302;-77
2023/02/23 08:16:11;;;;;;;30.75;19.33;;;5.50;1.00;;;;;;6131598;23;20226;-78
2023/02/23 08:18:39;;;;;;;26.85;19.20;;;5.60;1.00;;;;;;6132353;23;20222;-77
2023/02/23 08:21:08;;;;;;;23.60;17.30;;;5.70;1.00;;;;;;6132366;23;21024;-77
2023/02/23 08:23:35;;;;;;;28.17;17.63;;;5.70;1.00;;;;;;6133432;23;20753;-77
2023/02/23 08:26:02;;;;;;;26.67;18.75;;;5.70;1.00;;;;;;6133543;23;20215;-79
2023/02/23 08:28:30;;;;;;;29.75;19.80;;;5.70;1.00;;;;;;6133043;23;20279;-77
2023/02/23 08:30:58;;;;;;;28.35;18.23;;;5.90;1.00;;;;;;6131353;23;20216;-77
2023/02/23 08:33:25;;;;;;;28.92;17.48;;;6.00;1.00;;;;;;6132851;23;20977;-77
2023/02/23 08:35:54;;;;;;;26.48;19.00;;;6.10;1.00;;;;;;6131603;23;20221;-78
2023/02/23 08:38:21;;;;;;;28.85;17.95;;;6.20;1.00;;;;;;6135306;23;20215;-78
2023/02/23 08:40:48;;;;;;;30.85;18.25;;;6.20;1.00;;;;;;6133170;23;20243;-77
2023/02/23 08:43:16;;;;;;;27.00;18.60;;;6.10;1.00;;;;;;6133029;23;20212;-77
2023/02/23 08:45:43;;;;;;;25.98;18.02;;;6.10;1.00;;;;;;6114928;23;20215;-77
2023/02/23 08:48:11;;;;;;;27.02;17.30;;;6.30;1.00;;;;;;6107139;23;20215;-79
2023/02/23 08:50:39;;;;;;;40.45;19.15;;;6.30;1.00;;;;;;6129197;23;20274;-77
2023/02/23 08:53:08;;;;;;;32.67;19.65;;;6.40;1.00;;;;;;6131216;23;20223;-78
2023/02/23 08:55:37;;;;;;;31.48;19.98;;;6.60;1.00;;;;;;6132305;23;20267;-77
2023/02/23 08:58:05;;;;;;;28.92;17.65;;;6.70;1.00;;;;;;6128956;23;20222;-76
2023/02/23 09:00:32;;;;;;;28.20;18.52;;;6.70;1.00;;;;;;6132390;23;20228;-77
2023/02/23 09:02:59;;;;;;;29.70;18.83;;;6.80;1.00;;;;;;6130424;23;20287;-78
2023/02/23 09:05:26;;;;;;;32.95;17.92;;;6.90;1.00;;;;;;6130650;23;20209;-77
2023/02/23 09:07:54;;;;;;;26.10;17.20;;;7.10;1.00;;;;;;6132579;23;20217;-77
2023/02/23 09:10:26;;;;;;;31.60;18.85;;;7.20;1.00;;;;;;6133571;23;20218;-78
2023/02/23 09:12:54;;;;;;;24.55;17.08;;;7.00;1.00;;;;;;6134380;23;20220;-77
2023/02/23 09:15:23;;;;;;;27.35;18.08;;;6.90;1.00;;;;;;6134111;23;21021;-78
2023/02/23 09:17:51;;;;;;;28.40;18.60;;;7.00;1.00;;;;;;6130558;23;20318;-78
2023/02/23 09:20:18;;;;;;;25.70;17.85;;;7.20;1.00;;;;;;6131024;23;20971;-78
2023/02/23 09:22:48;;;;;;;26.52;18.35;;;7.40;1.00;;;;;;6129923;23;20255;-77
2023/02/23 09:25:21;;;;;;;26.10;18.27;;;7.60;1.00;;;;;;6133757;23;20243;-77
2023/02/23 09:27:50;;;;;;;27.08;17.98;;;7.60;1.00;;;;;;6134036;23;20681;-77
2023/02/23 09:30:21;;;;;;;31.67;19.73;;;7.50;1.00;;;;;;6109222;23;20249;-78
2023/02/23 09:32:50;;;;;;;29.13;18.65;;;7.50;1.00;;;;;;6136343;23;20282;-78
2023/02/23 09:35:20;;;;;;;32.40;19.63;;;7.50;1.00;;;;;;6132418;23;21003;-77
2023/02/23 09:37:50;;;;;;;32.28;20.35;;;7.70;1.00;;;;;;6106377;23;20488;-79
2023/02/23 09:40:20;;;;;;;27.17;17.92;;;7.90;1.00;;;;;;6123783;23;20222;-77
2023/02/23 09:42:59;;;;;;;27.00;18.00;;;8.20;1.00;;;;;;6131904;23;20211;-78
2023/02/23 09:45:40;;;;;;;26.97;18.53;;;8.50;1.00;;;;;;6133716;23;20210;-77
2023/02/23 09:48:12;;;;;;;27.63;18.85;;;8.50;1.00;;;;;;6135568;23;20443;-77
2023/02/23 09:50:43;;;;;;;28.20;19.50;;;8.70;1.00;;;;;;6132586;23;20230;-77
2023/02/23 09:53:26;;;;;;;30.10;20.27;;;8.90;1.00;;;;;;6135675;23;20511;-78
2023/02/23 09:55:56;;;;;;;29.10;18.33;;;9.00;1.00;;;;;;6133017;23;20413;-77
2023/02/23 09:58:29;;;;;;;29.53;19.87;;;9.10;1.00;;;;;;6132903;23;20412;-78
2023/02/23 10:01:29;;;;;;;23.87;17.43;;;9.10;1.00;;;;;;6131322;23;20412;-76
2023/02/23 10:03:59;;;;;;;32.03;19.40;;;9.60;1.00;;;;;;6128649;23;20554;-79
2023/02/23 10:06:28;;;;;;;27.93;17.90;;;10.10;1.00;;;;;;6131168;23;20455;-77
2023/02/23 10:09:13;;;;;;;23.83;16.97;;;10.40;1.00;;;;;;6129964;23;20399;-76
2023/02/23 10:11:46;;;;;;;25.23;17.80;;;10.90;1.00;;;;;;6131048;23;20755;-78
2023/02/23 10:14:39;;;;;;;31.47;19.80;;;11.10;1.00;;;;;;6129708;23;20487;-78
2023/02/23 10:17:19;;;;;;;28.80;18.70;;;11.60;1.00;;;;;;6130952;23;20474;-77
2023/02/23 10:19:56;;;;;;;26.60;19.00;;;12.30;1.00;;;;;;6129475;23;20408;-78
2023/02/23 10:22:24;;;;;;;28.93;18.53;;;12.70;1.00;;;;;;6129985;23;20486;-77
2023/02/23 10:24:57;;;;;;;25.00;18.10;;;13.00;1.00;;;;;;6130100;23;20428;-77
2023/02/23 10:27:29;;;;;;;29.30;18.70;;;13.40;1.00;;;;;;6130567;23;20832;-79
2023/02/23 10:30:01;;;;;;;26.00;19.93;;;13.70;1.00;;;;;;6128674;23;20415;-77
2023/02/23 10:32:40;;;;;;;31.97;21.10;;;14.10;1.00;;;;;;6132571;23;20423;-78
2023/02/23 10:35:12;;;;;;;27.07;19.67;;;14.00;1.00;;;;;;6131841;23;20472;-76
2023/02/23 10:37:39;;;;;;;27.40;19.93;;;14.10;1.00;;;;;;6126100;23;20433;-78
2023/02/23 10:40:13;;;;;;;24.77;19.73;;;14.30;1.00;;;;;;6128609;23;20732;-77
2023/02/23 10:42:40;;;;;;;24.77;20.20;;;14.50;1.00;;;;;;6128075;23;20404;-78
2023/02/23 10:45:21;;;;;;;23.07;18.77;;;14.60;1.00;;;;;;6131469;23;20916;-77
2023/02/23 10:47:54;;;;;;;33.57;21.17;;;14.70;1.00;;;;;;6131042;23;20438;-78
2023/02/23 10:50:25;;;;;;;25.50;19.13;;;14.70;1.00;;;;;;6130433;23;20526;-77
2023/02/23 10:52:57;;;;;;;30.50;20.43;;;15.10;1.00;;;;;;6127646;23;20448;-78
2023/02/23 10:55:26;;;;;;;24.30;19.50;;;15.50;1.00;;;;;;6130079;23;20814;-77
2023/02/23 10:58:15;;;;;;;26.93;20.77;;;15.60;1.00;;;;;;6127902;23;20505;-77
2023/02/23 11:00:53;;;;;;;27.53;20.30;;;15.70;1.00;;;;;;6126177;23;20428;-77
2023/02/23 11:03:28;;;;;;;25.27;20.30;;;15.90;1.00;;;;;;6128108;23;20451;-77
2023/02/23 11:05:55;;;;;;;27.30;20.37;;;16.20;1.00;;;;;;6130976;23;20473;-77
2023/02/23 11:08:29;;;;;;;30.93;21.70;;;16.50;1.00;;;;;;6133685;23;20435;-78
2023/02/23 11:11:02;;;;;;;29.47;20.23;;;16.60;1.00;;;;;;6130177;23;20416;-77
2023/02/23 11:13:39;;;;;;;27.70;21.27;;;16.80;1.00;;;;;;6135206;23;20420;-77
2023/02/23 11:16:11;;;;;;;33.40;22.07;;;17.10;1.00;;;;;;6132045;23;20419;-78
2023/02/23 11:18:43;;;;;;;28.67;20.30;;;16.90;1.00;;;;;;6107219;23;20439;-77
2023/02/23 11:21:13;;;;;;;36.40;22.67;;;16.60;1.00;;;;;;6134438;23;20882;-76
2023/02/23 11:23:41;;;;;;;32.50;21.80;;;16.50;1.00;;;;;;6133316;23;20425;-77
2023/02/23 11:26:24;;;;;;;30.43;21.90;;;16.70;1.00;;;;;;6133556;23;20482;-76
2023/02/23 11:29:00;;;;;;;28.40;19.57;;;16.90;1.00;;;;;;6130463;23;20858;-79
2023/02/23 11:31:35;;;;;;;31.37;20.80;;;17.10;1.00;;;;;;6135747;23;20426;-77
2023/02/23 11:34:04;;;;;;;27.70;19.87;;;16.80;1.00;;;;;;6101334;23;20423;-76
2023/02/23 11:36:34;;;;;;;29.30;22.13;;;16.80;1.00;;;;;;6126618;23;20959;-76
2023/02/23 11:39:22;;;;;;;29.10;20.23;;;16.80;1.00;;;;;;6094207;23;20490;-77
2023/02/23 11:42:05;;;;;;;30.57;21.77;;;17.00;1.00;;;;;;6133147;23;20428;-76
2023/02/23 11:44:32;;;;;;;28.90;21.33;;;17.10;1.00;;;;;;6134243;23;20506;-77
2023/02/23 11:47:02;;;;;;;29.10;19.70;;;16.90;1.00;;;;;;6133742;23;20505;-78
2023/02/23 11:49:33;;;;;;;31.30;21.23;;;16.50;1.00;;;;;;6134201;23;20435;-77
2023/02/23 11:52:01;;;;;;;28.20;21.93;;;16.30;1.00;;;;;;6068080;23;20416;-75
2023/02/23 11:54:32;;;;;;;28.43;21.30;;;16.40;1.00;;;;;;6133807;23;20396;-78
2023/02/23 11:57:01;;;;;;;32.00;20.50;;;16.50;1.00;;;;;;6133035;23;20424;-78
2023/02/23 11:59:32;;;;;;;29.63;22.67;;;16.90;1.00;;;;;;6134517;23;20427;-77
2023/02/23 12:02:06;;;;;;;32.27;22.97;;;17.20;1.00;;;;;;6132466;23;20424;-78
2023/02/23 12:04:40;;;;;;;27.73;20.33;;;17.40;1.00;;;;;;6133510;23;20841;-79
2023/02/23 12:07:37;;;;;;;27.87;21.37;;;17.70;1.00;;;;;;6133426;23;20514;-78
2023/02/23 12:10:16;;;;;;;28.57;21.20;;;17.50;1.00;;;;;;6132859;23;20423;-77
2023/02/23 12:12:58;;;;;;;35.60;23.00;;;16.80;1.00;;;;;;6132805;23;20433;-75
2023/02/23 12:15:34;;;;;;;32.87;23.10;;;16.50;1.00;;;;;;6108762;23;20428;-80
2023/02/23 12:18:11;;;;;;;31.17;22.73;;;16.20;1.00;;;;;;6131566;23;20494;-79
2023/02/23 12:20:42;;;;;;;30.63;21.17;;;15.90;1.00;;;;;;6134041;23;20434;-80
2023/02/23 12:23:15;;;;;;;28.77;21.70;;;15.90;1.00;;;;;;6134991;23;20509;-79
2023/02/23 12:25:48;;;;;;;36.90;23.20;;;16.00;1.00;;;;;;6135816;23;20467;-79
2023/02/23 12:28:28;;;;;;;34.33;22.63;;;16.40;1.00;;;;;;6137599;23;20428;-80
2023/02/23 12:31:00;;;;;;;27.00;21.23;;;16.40;1.00;;;;;;6133303;23;20470;-78
2023/02/23 12:33:35;;;;;;;33.60;22.53;;;16.30;1.00;;;;;;6134678;23;20891;-80
2023/02/23 12:36:06;;;;;;;32.20;22.03;;;16.10;1.00;;;;;;6134951;23;20461;-81
2023/02/23 12:38:47;;;;;;;32.43;21.73;;;16.40;1.00;;;;;;6133303;23;20428;-80
2023/02/23 12:41:18;;;;;;;30.90;21.90;;;17.00;1.00;;;;;;6133984;23;20511;-78
2023/02/23 12:43:50;;;;;;;31.73;22.43;;;17.40;1.00;;;;;;6132348;23;20416;-79
2023/02/23 12:46:22;;;;;;;29.53;21.13;;;17.60;1.00;;;;;;6129672;23;21100;-79
2023/02/23 12:49:11;;;;;;;27.33;22.73;;;17.50;1.00;;;;;;6134802;23;20432;-80
2023/02/23 12:51:41;;;;;;;32.90;22.40;;;17.20;1.00;;;;;;6129260;23;20824;-80
2023/02/23 12:54:12;;;;;;;28.23;21.20;;;16.90;1.00;;;;;;6094041;23;20424;-79
2023/02/23 12:56:50;;;;;;;28.57;21.50;;;16.50;1.00;;;;;;6133964;23;21213;-80
2023/02/23 12:59:47;;;;;;;27.27;20.83;;;16.10;1.00;;;;;;6134289;23;20482;-80
2023/02/23 13:02:26;;;;;;;29.90;21.13;;;15.80;1.00;;;;;;6096087;23;20435;-79
2023/02/23 13:05:11;;;;;;;30.17;21.00;;;15.50;1.00;;;;;;6131796;23;20438;-80
2023/02/23 13:07:45;;;;;;;32.30;22.93;;;15.40;1.00;;;;;;6104670;23;20489;-78
2023/02/23 13:10:23;;;;;;;28.30;21.60;;;15.20;1.00;;;;;;6134559;23;20423;-81
2023/02/23 13:12:59;;;;;;;31.07;23.10;;;15.20;1.00;;;;;;6132883;23;20939;-80
2023/02/23 13:15:43;;;;;;;26.90;20.53;;;15.20;1.00;;;;;;6131892;23;20415;-79
2023/02/23 13:18:13;;;;;;;32.57;23.40;;;15.00;1.00;;;;;;6132254;23;20424;-80
2023/02/23 13:20:51;;;;;;;32.07;24.03;;;14.80;1.00;;;;;;6104301;23;20476;-80
2023/02/23 13:23:27;;;;;;;29.80;23.10;;;14.50;1.00;;;;;;6130912;23;20430;-79
2023/02/23 13:26:00;;;;;;;28.20;21.60;;;14.40;1.00;;;;;;6130399;23;20421;-79
2023/02/23 13:28:41;;;;;;;32.00;21.33;;;14.40;1.00;;;;;;6131359;23;20811;-79
2023/02/23 13:31:19;;;;;;;36.50;24.10;;;14.50;1.00;;;;;;6119450;23;20466;-80
2023/02/23 13:33:46;;;;;;;27.73;21.53;;;14.50;1.00;;;;;;6129378;23;20406;-80
2023/02/23 13:36:19;;;;;;;29.10;21.63;;;14.60;1.00;;;;;;6131888;23;20415;-79
2023/02/23 13:39:09;;;;;;;25.37;21.03;;;14.60;1.00;;;;;;6130768;23;20454;-80
2023/02/23 13:41:41;;;;;;;35.63;25.13;;;14.60;1.00;;;;;;6130774;23;20857;-79
2023/02/23 13:44:15;;;;;;;30.40;23.30;;;14.50;1.00;;;;;;6130620;23;20434;-80
2023/02/23 13:46:49;;;;;;;29.93;23.60;;;14.50;1.00;;;;;;6130479;23;20422;-80
2023/02/23 13:49:27;;;;;;;30.37;22.70;;;14.40;1.00;;;;;;6133764;23;20456;-80
2023/02/23 13:51:58;;;;;;;34.27;24.23;;;14.20;1.00;;;;;;6130382;23;20950;-79
2023/02/23 13:54:32;;;;;;;32.20;23.73;;;14.20;1.00;;;;;;6131466;23;20437;-80
2023/02/23 13:57:02;;;;;;;28.23;22.27;;;14.00;1.00;;;;;;6134052;23;20528;-80
2023/02/23 13:59:32;;;;;;;29.93;23.80;;;13.80;1.00;;;;;;6082376;23;20842;-78
2023/02/23 14:02:02;;;;;;;30.07;22.17;;;13.50;1.00;;;;;;6133495;23;20449;-81
2023/02/23 14:04:36;;;;;;;38.30;23.27;;;13.40;1.00;;;;;;6133488;23;20520;-80
2023/02/23 14:07:17;;;;;;;29.90;23.33;;;13.40;1.00;;;;;;6133110;23;20441;-79
2023/02/23 14:09:53;;;;;;;33.67;23.80;;;13.30;1.00;;;;;;6134626;23;20850;-79
2023/02/23 14:12:26;;;;;;;37.87;24.50;;;13.20;1.00;;;;;;6135747;23;20480;-79
2023/02/23 14:14:53;;;;;;;32.93;24.83;;;13.20;1.00;;;;;;6133605;23;21242;-80
2023/02/23 14:17:41;;;;;;;33.30;24.10;;;13.10;1.00;;;;;;6126285;23;21166;-81
2023/02/23 14:20:26;;;;;;;36.67;24.80;;;13.00;1.00;;;;;;6132044;23;20512;-79
2023/02/23 14:23:29;;;;;;;30.30;22.90;;;13.00;1.00;;;;;;6128845;23;20424;-79
2023/02/23 14:26:18;;;;;;;30.77;23.93;;;12.90;1.00;;;;;;6132914;23;21005;-80
2023/02/23 14:28:49;;;;;;;34.60;25.53;;;12.80;1.00;;;;;;6132587;23;20433;-82